Time;durP1;ratioP1;P1;durP2;ratioP2;P2;SDS_P1;SDS_P2;PMS_P1;PMS_P2;Temp;Humidity;BMP_temperature;BMP_pressure;BME280_temperature;BME280_humidity;BME280_pressure;Samples;Min_cycle;Max_cycle;Signal;HPM_P1;HPM_P2
2022/11/06 00:02:15;;;;;;;;;14.50;14.50;;;;;;;;5095461;27;45287;-73
2022/11/06 00:04:40;;;;;;;;;10.75;10.75;;;;;;;;5097668;27;45490;-74
2022/11/06 00:07:06;;;;;;;;;11.25;11.25;;;;;;;;5095137;27;46285;-71
2022/11/06 00:09:32;;;;;;;;;11.00;11.00;;;;;;;;5095713;27;45409;-70
2022/11/06 00:11:58;;;;;;;;;9.75;9.75;;;;;;;;5095834;27;45250;-73
2022/11/06 00:14:23;;;;;;;;;15.25;15.25;;;;;;;;5095954;27;45652;-73
2022/11/06 00:16:48;;;;;;;;;14.00;14.00;;;;;;;;5095678;27;46097;-72
2022/11/06 00:19:14;;;;;;;;;8.75;8.75;;;;;;;;5095387;27;45311;-71
2022/11/06 00:21:39;;;;;;;;;9.25;9.25;;;;;;;;5095234;27;45461;-72
2022/11/06 00:24:05;;;;;;;;;9.25;9.25;;;;;;;;5076830;27;45518;-71
2022/11/06 00:26:31;;;;;;;;;9.25;9.25;;;;;;;;5095281;27;45446;-73
2022/11/06 00:28:57;;;;;;;;;8.00;8.00;;;;;;;;5095110;27;45409;-71
2022/11/06 00:31:27;;;;;;;;;7.25;7.25;;;;;;;;5095295;27;45415;-72
2022/11/06 00:33:53;;;;;;;;;8.75;8.75;;;;;;;;5095594;27;45381;-70
2022/11/06 00:36:20;;;;;;;;;8.00;8.00;;;;;;;;5095390;27;45344;-71
2022/11/06 00:38:45;;;;;;;;;9.25;9.25;;;;;;;;5076333;27;45453;-72
2022/11/06 00:41:11;;;;;;;;;8.50;8.50;;;;;;;;5099006;27;45402;-72
2022/11/06 00:43:37;;;;;;;;;7.50;7.50;;;;;;;;5096140;27;45275;-71
2022/11/06 00:46:03;;;;;;;;;13.25;13.25;;;;;;;;5095478;27;45353;-72
2022/11/06 00:48:28;;;;;;;;;8.00;8.00;;;;;;;;5104802;27;45308;-72
2022/11/06 00:50:53;;;;;;;;;10.00;10.00;;;;;;;;5102011;27;45310;-72
2022/11/06 00:53:18;;;;;;;;;6.50;6.50;;;;;;;;5095309;27;45357;-70
2022/11/06 00:55:44;;;;;;;;;9.25;9.25;;;;;;;;5076693;27;47420;-71
2022/11/06 00:58:09;;;;;;;;;9.25;9.25;;;;;;;;5095063;27;45293;-70
2022/11/06 01:00:34;;;;;;;;;13.75;13.25;;;;;;;;5098059;27;45426;-72
2022/11/06 01:02:59;;;;;;;;;9.75;7.75;;;;;;;;5098563;27;45221;-71
2022/11/06 01:05:24;;;;;;;;;8.75;8.75;;;;;;;;5080028;27;47160;-74
2022/11/06 01:07:50;;;;;;;;;9.25;9.25;;;;;;;;5098298;27;45311;-72
2022/11/06 01:10:15;;;;;;;;;11.00;8.50;;;;;;;;5079952;27;45452;-71
2022/11/06 01:12:40;;;;;;;;;14.00;14.00;;;;;;;;5098351;27;45498;-71
2022/11/06 01:15:05;;;;;;;;;22.75;22.75;;;;;;;;5098690;27;46787;-73
2022/11/06 01:17:31;;;;;;;;;9.00;9.00;;;;;;;;5098645;27;45326;-70
2022/11/06 01:19:56;;;;;;;;;8.00;8.00;;;;;;;;5098372;27;45318;-71
2022/11/06 01:22:21;;;;;;;;;7.00;7.00;;;;;;;;5098428;27;45574;-71
2022/11/06 01:24:46;;;;;;;;;7.50;7.50;;;;;;;;5097959;27;46479;-73
2022/11/06 01:27:12;;;;;;;;;8.00;8.00;;;;;;;;5097926;27;45319;-70
2022/11/06 01:29:37;;;;;;;;;7.00;7.00;;;;;;;;5098497;27;45377;-73
2022/11/06 01:32:03;;;;;;;;;11.00;11.00;;;;;;;;5098563;27;45357;-72
2022/11/06 01:34:28;;;;;;;;;9.50;9.50;;;;;;;;5098108;27;46349;-73
2022/11/06 01:36:53;;;;;;;;;7.00;7.00;;;;;;;;5098029;27;45346;-72
2022/11/06 01:39:18;;;;;;;;;6.50;6.50;;;;;;;;5098230;27;45384;-72
2022/11/06 01:41:45;;;;;;;;;7.50;7.50;;;;;;;;5098479;27;45511;-70
2022/11/06 01:44:33;;;;;;;;;8.00;8.00;;;;;;;;5097982;27;46126;-72
2022/11/06 01:47:00;;;;;;;;;7.75;7.75;;;;;;;;5059635;27;45436;-73
2022/11/06 01:49:26;;;;;;;;;8.50;8.50;;;;;;;;5098331;27;45298;-72
2022/11/06 01:51:51;;;;;;;;;8.25;8.25;;;;;;;;5097894;27;45522;-70
2022/11/06 01:54:16;;;;;;;;;6.25;6.00;;;;;;;;5097381;27;45408;-72
2022/11/06 01:56:43;;;;;;;;;6.25;6.25;;;;;;;;5079108;27;45291;-72
2022/11/06 01:59:12;;;;;;;;;7.00;7.00;;;;;;;;5097871;27;45323;-70
2022/11/06 02:01:37;;;;;;;;;6.50;6.50;;;;;;;;5097903;27;45435;-72
2022/11/06 02:04:10;;;;;;;;;6.50;6.50;;;;;;;;5079379;27;47844;-73
2022/11/06 02:06:35;;;;;;;;;7.00;7.00;;;;;;;;5097546;27;45504;-71
2022/11/06 02:09:01;;;;;;;;;9.75;9.75;;;;;;;;5097813;27;45390;-72
2022/11/06 02:11:27;;;;;;;;;7.00;7.00;;;;;;;;5097352;27;45563;-73
2022/11/06 02:14:11;;;;;;;;;7.50;7.50;;;;;;;;5097226;27;45974;-72
2022/11/06 02:16:53;;;;;;;;;8.75;8.75;;;;;;;;5097261;27;45376;-73
2022/11/06 02:19:18;;;;;;;;;6.00;6.00;;;;;;;;5097450;27;45929;-73
2022/11/06 02:22:02;;;;;;;;;6.50;6.50;;;;;;;;5097770;27;45864;-75
2022/11/06 02:24:30;;;;;;;;;7.25;7.25;;;;;;;;5097309;27;46262;-72
2022/11/06 02:27:01;;;;;;;;;8.00;8.00;;;;;;;;5097384;27;45409;-71
2022/11/06 02:29:32;;;;;;;;;7.00;7.00;;;;;;;;5097124;27;45327;-72
2022/11/06 02:31:59;;;;;;;;;6.75;6.75;;;;;;;;5097598;27;45351;-72
2022/11/06 02:34:26;;;;;;;;;7.50;7.50;;;;;;;;5096990;27;46417;-73
2022/11/06 02:36:55;;;;;;;;;7.50;7.50;;;;;;;;5078371;27;45340;-72
2022/11/06 02:39:24;;;;;;;;;5.50;5.50;;;;;;;;5078608;27;45442;-73
2022/11/06 02:41:51;;;;;;;;;4.50;4.50;;;;;;;;5097434;27;45461;-71
2022/11/06 02:44:18;;;;;;;;;7.25;7.25;;;;;;;;5096713;27;45444;-71
2022/11/06 02:46:46;;;;;;;;;5.00;5.00;;;;;;;;5096993;27;45396;-70
2022/11/06 02:49:14;;;;;;;;;4.75;4.75;;;;;;;;5097138;27;45769;-72
2022/11/06 02:51:42;;;;;;;;;6.00;6.00;;;;;;;;5083643;27;45639;-71
2022/11/06 02:54:09;;;;;;;;;5.75;5.75;;;;;;;;5090882;27;46130;-73
2022/11/06 02:56:38;;;;;;;;;7.00;7.00;;;;;;;;5074070;27;45397;-74
2022/11/06 02:59:06;;;;;;;;;5.25;5.25;;;;;;;;5076798;28;45358;-74
2022/11/06 03:01:49;;;;;;;;;6.00;6.00;;;;;;;;5076834;28;45275;-71
2022/11/06 03:04:18;;;;;;;;;6.00;6.00;;;;;;;;5088831;27;46093;-71
2022/11/06 03:07:07;;;;;;;;;8.00;8.00;;;;;;;;5090545;27;45243;-74
2022/11/06 03:09:33;;;;;;;;;7.50;5.50;;;;;;;;5068204;28;45292;-70
2022/11/06 03:12:03;;;;;;;;;6.00;6.00;;;;;;;;5077188;27;45307;-71
2022/11/06 03:14:31;;;;;;;;;5.00;5.00;;;;;;;;5087909;27;45408;-72
2022/11/06 03:16:59;;;;;;;;;5.75;5.75;;;;;;;;5096019;27;45427;-72
2022/11/06 03:19:24;;;;;;;;;5.75;5.75;;;;;;;;5095067;27;45481;-71
2022/11/06 03:21:55;;;;;;;;;5.00;5.00;;;;;;;;5094691;27;45315;-72
2022/11/06 03:24:26;;;;;;;;;7.00;7.00;;;;;;;;5095932;27;45458;-70
2022/11/06 03:26:52;;;;;;;;;4.00;4.00;;;;;;;;5077222;27;45349;-71
2022/11/06 03:29:17;;;;;;;;;5.50;5.50;;;;;;;;5095929;27;45257;-71
2022/11/06 03:31:46;;;;;;;;;5.80;5.80;;;;;;;;5096176;27;45598;-70
2022/11/06 03:34:16;;;;;;;;;5.75;5.75;;;;;;;;5095731;27;45462;-71
2022/11/06 03:36:43;;;;;;;;;5.00;5.00;;;;;;;;5095297;27;45268;-72
2022/11/06 03:39:12;;;;;;;;;6.00;5.00;;;;;;;;5095575;27;45266;-72
2022/11/06 03:41:48;;;;;;;;;4.00;4.00;;;;;;;;5095846;27;45322;-71
2022/11/06 03:44:16;;;;;;;;;6.00;6.00;;;;;;;;5095673;27;45621;-71
2022/11/06 03:46:45;;;;;;;;;7.00;7.00;;;;;;;;5076922;27;45322;-73
2022/11/06 03:49:12;;;;;;;;;6.25;6.25;;;;;;;;5095442;27;45406;-71
2022/11/06 03:51:44;;;;;;;;;6.00;6.00;;;;;;;;5095736;27;45257;-71
2022/11/06 03:54:16;;;;;;;;;6.25;6.00;;;;;;;;5095121;27;46171;-71
2022/11/06 03:56:53;;;;;;;;;6.50;6.00;;;;;;;;5095639;27;45354;-72
2022/11/06 03:59:22;;;;;;;;;4.00;4.00;;;;;;;;5095596;27;45270;-71
2022/11/06 04:01:48;;;;;;;;;4.00;4.00;;;;;;;;5095577;27;45419;-71
2022/11/06 04:04:18;;;;;;;;;10.00;7.00;;;;;;;;5095111;27;46316;-71
2022/11/06 04:06:46;;;;;;;;;4.50;4.50;;;;;;;;5076930;27;45272;-72
2022/11/06 04:14:45;;;;;;;;;8.50;8.50;;;;;;;;5095719;27;45648;-72
2022/11/06 04:17:11;;;;;;;;;5.00;5.00;;;;;;;;5078064;27;45452;-72
2022/11/06 04:19:39;;;;;;;;;4.75;4.75;;;;;;;;5097583;27;45279;-71
2022/11/06 04:22:23;;;;;;;;;4.50;4.50;;;;;;;;5096167;27;45616;-72
2022/11/06 04:27:56;;;;;;;;;6.00;6.00;;;;;;;;5095472;27;45288;-72
2022/11/06 04:30:22;;;;;;;;;5.00;5.00;;;;;;;;5095577;27;45342;-71
2022/11/06 04:33:04;;;;;;;;;5.75;5.75;;;;;;;;5096492;27;45430;-71
2022/11/06 04:35:35;;;;;;;;;4.25;4.25;;;;;;;;5098359;27;45672;-72
2022/11/06 04:38:16;;;;;;;;;5.00;5.00;;;;;;;;5098637;27;45263;-72
2022/11/06 04:40:50;;;;;;;;;5.25;5.25;;;;;;;;5098977;27;45407;-70
2022/11/06 04:43:24;;;;;;;;;5.00;5.00;;;;;;;;5098974;27;45556;-72
2022/11/06 04:45:52;;;;;;;;;6.50;6.50;;;;;;;;5098743;27;45659;-71
2022/11/06 04:48:18;;;;;;;;;4.50;4.50;;;;;;;;5098426;27;45481;-71
2022/11/06 04:50:49;;;;;;;;;5.25;5.25;;;;;;;;5098657;27;45335;-70
2022/11/06 04:53:15;;;;;;;;;7.00;7.00;;;;;;;;5098764;27;45371;-71
2022/11/06 04:55:45;;;;;;;;;5.00;5.00;;;;;;;;5098686;27;45336;-70
2022/11/06 04:58:10;;;;;;;;;6.75;5.00;;;;;;;;5098700;27;45210;-71
2022/11/06 05:00:37;;;;;;;;;4.50;4.50;;;;;;;;5098607;27;45230;-73
2022/11/06 05:03:03;;;;;;;;;4.75;4.75;;;;;;;;5099110;27;45694;-71
2022/11/06 05:05:28;;;;;;;;;4.50;4.50;;;;;;;;5080179;27;47214;-72
2022/11/06 05:07:53;;;;;;;;;5.00;4.25;;;;;;;;5098808;27;45415;-71
2022/11/06 05:10:18;;;;;;;;;6.00;6.00;;;;;;;;5098640;27;45445;-72
2022/11/06 05:12:46;;;;;;;;;5.75;5.75;;;;;;;;5098371;27;45276;-71
2022/11/06 05:15:11;;;;;;;;;4.25;4.25;;;;;;;;5098786;27;46348;-71
2022/11/06 05:17:36;;;;;;;;;4.00;4.00;;;;;;;;5098185;27;45425;-72
2022/11/06 05:20:01;;;;;;;;;5.75;5.75;;;;;;;;5098320;27;45433;-70
2022/11/06 05:25:10;;;;;;;;;5.75;5.75;;;;;;;;5098289;27;45291;-71
2022/11/06 05:27:36;;;;;;;;;5.00;5.00;;;;;;;;5098086;27;45461;-71
2022/11/06 05:30:01;;;;;;;;;5.00;4.75;;;;;;;;5098400;27;45402;-71
2022/11/06 05:32:26;;;;;;;;;6.00;6.00;;;;;;;;5080305;27;45389;-72
2022/11/06 05:34:51;;;;;;;;;6.00;6.00;;;;;;;;5097757;27;47030;-71
2022/11/06 05:37:17;;;;;;;;;5.25;5.25;;;;;;;;5097730;27;45424;-70
2022/11/06 05:39:42;;;;;;;;;4.50;4.50;;;;;;;;5098310;27;45420;-70
2022/11/06 05:42:07;;;;;;;;;7.00;7.00;;;;;;;;5098251;27;45516;-71
2022/11/06 05:44:32;;;;;;;;;7.00;7.00;;;;;;;;5097061;27;45412;-71
2022/11/06 05:46:57;;;;;;;;;6.50;6.50;;;;;;;;5097962;27;45306;-71
2022/11/06 05:49:23;;;;;;;;;4.00;4.00;;;;;;;;5098035;27;45369;-71
2022/11/06 05:51:48;;;;;;;;;4.50;4.50;;;;;;;;5097879;27;45413;-72
2022/11/06 05:54:13;;;;;;;;;6.50;6.50;;;;;;;;5079418;27;46193;-71
2022/11/06 05:56:38;;;;;;;;;5.00;5.00;;;;;;;;5097842;27;45280;-71
2022/11/06 05:59:04;;;;;;;;;7.25;7.25;;;;;;;;5097998;27;45488;-72
2022/11/06 06:01:29;;;;;;;;;6.50;6.50;;;;;;;;5097946;27;45493;-70
2022/11/06 06:03:54;;;;;;;;;5.00;5.00;;;;;;;;5097291;27;46479;-72
2022/11/06 06:06:19;;;;;;;;;3.50;3.50;;;;;;;;5097281;27;45395;-70
2022/11/06 06:08:45;;;;;;;;;4.50;4.50;;;;;;;;5098027;27;45302;-72
2022/11/06 06:11:13;;;;;;;;;6.00;6.00;;;;;;;;5097634;27;45464;-71
2022/11/06 06:13:38;;;;;;;;;6.25;6.25;;;;;;;;5097227;27;46768;-70
2022/11/06 06:16:03;;;;;;;;;6.00;6.00;;;;;;;;5097310;27;45370;-71
2022/11/06 06:18:28;;;;;;;;;5.75;5.75;;;;;;;;5078927;27;45197;-71
2022/11/06 06:20:55;;;;;;;;;7.75;7.75;;;;;;;;5097363;27;45519;-70
2022/11/06 06:23:21;;;;;;;;;4.50;4.50;;;;;;;;5097224;27;45387;-71
2022/11/06 06:25:46;;;;;;;;;5.25;5.25;;;;;;;;5097575;27;45354;-71
2022/11/06 06:28:11;;;;;;;;;6.50;6.50;;;;;;;;5097479;27;45430;-71
2022/11/06 06:30:37;;;;;;;;;4.75;4.75;;;;;;;;5097164;27;45604;-71
2022/11/06 06:33:03;;;;;;;;;9.00;7.50;;;;;;;;5096695;27;46616;-71
2022/11/06 06:35:29;;;;;;;;;5.00;5.00;;;;;;;;5096466;27;45268;-71
2022/11/06 06:37:54;;;;;;;;;6.00;6.00;;;;;;;;5097005;27;45340;-71
2022/11/06 06:40:19;;;;;;;;;5.50;5.50;;;;;;;;5078742;27;45460;-71
2022/11/06 06:42:45;;;;;;;;;6.25;6.25;;;;;;;;5078776;27;47286;-71
2022/11/06 06:45:10;;;;;;;;;6.25;6.25;;;;;;;;5096648;27;45421;-70
2022/11/06 06:47:35;;;;;;;;;6.75;6.75;;;;;;;;5096836;27;45487;-70
2022/11/06 06:50:00;;;;;;;;;7.00;6.25;;;;;;;;5096861;27;45226;-70
2022/11/06 06:52:25;;;;;;;;;5.00;5.00;;;;;;;;5096372;27;46380;-71
2022/11/06 06:54:50;;;;;;;;;3.75;3.75;;;;;;;;5096454;27;45296;-71
2022/11/06 06:57:16;;;;;;;;;6.25;6.25;;;;;;;;5096918;27;45409;-71
2022/11/06 06:59:41;;;;;;;;;5.25;5.25;;;;;;;;5096669;27;45315;-71
2022/11/06 07:02:07;;;;;;;;;7.00;7.00;;;;;;;;5077794;27;46544;-71
2022/11/06 07:04:33;;;;;;;;;6.75;6.75;;;;;;;;5096291;27;45396;-71
2022/11/06 07:06:58;;;;;;;;;5.50;5.50;;;;;;;;5096174;27;45495;-71
2022/11/06 07:09:23;;;;;;;;;5.00;5.00;;;;;;;;5096554;27;45306;-70
2022/11/06 07:11:48;;;;;;;;;5.00;5.00;;;;;;;;5096765;27;45371;-71
2022/11/06 07:14:13;;;;;;;;;6.00;6.00;;;;;;;;5096131;27;45297;-71
2022/11/06 07:16:39;;;;;;;;;9.00;9.00;;;;;;;;5095856;27;45386;-69
2022/11/06 07:19:04;;;;;;;;;4.50;4.50;;;;;;;;5096392;27;45616;-70
2022/11/06 07:21:29;;;;;;;;;8.25;8.25;;;;;;;;5095903;27;45467;-71
2022/11/06 07:23:54;;;;;;;;;5.25;4.25;;;;;;;;5095981;27;45505;-69
2022/11/06 07:26:21;;;;;;;;;5.00;5.00;;;;;;;;5077721;27;45405;-71
2022/11/06 07:28:46;;;;;;;;;5.00;5.00;;;;;;;;5096362;27;45598;-72
2022/11/06 07:31:11;;;;;;;;;5.50;5.50;;;;;;;;5095644;27;45469;-71
2022/11/06 07:33:37;;;;;;;;;5.75;5.00;;;;;;;;5095961;27;45290;-70
2022/11/06 07:36:03;;;;;;;;;6.00;6.00;;;;;;;;5095783;27;45337;-72
2022/11/06 07:38:28;;;;;;;;;5.75;5.75;;;;;;;;5095893;27;45510;-71
2022/11/06 07:40:54;;;;;;;;;4.50;4.50;;;;;;;;5076690;27;48357;-70
2022/11/06 07:43:19;;;;;;;;;4.50;4.50;;;;;;;;5077588;27;45452;-70
2022/11/06 07:45:44;;;;;;;;;9.75;8.25;;;;;;;;5095478;27;45403;-71
2022/11/06 07:48:09;;;;;;;;;5.75;5.75;;;;;;;;5095716;27;45349;-73
2022/11/06 07:50:34;;;;;;;;;6.25;6.25;;;;;;;;5095449;27;45441;-71
2022/11/06 07:53:00;;;;;;;;;4.00;4.00;;;;;;;;5095898;27;45272;-70
2022/11/06 07:55:26;;;;;;;;;4.50;4.50;;;;;;;;5097149;27;45418;-71
2022/11/06 07:57:51;;;;;;;;;5.00;5.00;;;;;;;;5096729;27;45192;-71
2022/11/06 08:00:16;;;;;;;;;3.75;3.75;;;;;;;;5095250;27;45283;-71
2022/11/06 08:02:41;;;;;;;;;2.50;2.50;;;;;;;;5095156;27;45319;-71
2022/11/06 08:05:06;;;;;;;;;6.25;6.25;;;;;;;;5094825;27;45414;-72
2022/11/06 08:07:32;;;;;;;;;4.00;4.00;;;;;;;;5096000;27;45173;-70
2022/11/06 08:09:57;;;;;;;;;5.50;5.50;;;;;;;;5080382;27;45945;-71
2022/11/06 08:12:22;;;;;;;;;8.00;7.00;;;;;;;;5099323;27;45454;-71
2022/11/06 08:14:47;;;;;;;;;5.00;5.00;;;;;;;;5099153;27;45320;-71
2022/11/06 08:17:13;;;;;;;;;4.50;4.50;;;;;;;;5099067;27;45505;-71
2022/11/06 08:19:38;;;;;;;;;8.50;8.50;;;;;;;;5080087;27;48297;-71
2022/11/06 08:22:03;;;;;;;;;5.75;5.75;;;;;;;;5099093;27;45780;-71
2022/11/06 08:24:28;;;;;;;;;4.75;4.75;;;;;;;;5099344;27;45669;-69
2022/11/06 08:26:53;;;;;;;;;9.50;9.50;;;;;;;;5080920;27;45273;-71
2022/11/06 08:29:19;;;;;;;;;7.00;7.00;;;;;;;;5099375;27;45272;-71
2022/11/06 08:31:44;;;;;;;;;6.75;6.75;;;;;;;;5098496;27;45403;-70
2022/11/06 08:34:09;;;;;;;;;5.25;5.25;;;;;;;;5098403;27;45402;-71
2022/11/06 08:36:39;;;;;;;;;6.00;6.00;;;;;;;;5098996;27;45501;-72
2022/11/06 08:39:04;;;;;;;;;5.25;5.25;;;;;;;;5098522;27;46614;-72
2022/11/06 08:41:29;;;;;;;;;5.75;5.75;;;;;;;;5098322;27;45321;-71
2022/11/06 08:43:55;;;;;;;;;8.00;8.00;;;;;;;;5098670;27;45313;-71
2022/11/06 08:46:20;;;;;;;;;5.00;5.00;;;;;;;;5098794;27;45413;-72
2022/11/06 08:48:45;;;;;;;;;7.00;7.00;;;;;;;;5097915;27;46439;-71
2022/11/06 08:51:10;;;;;;;;;5.75;5.75;;;;;;;;5098190;27;45540;-75
2022/11/06 08:53:36;;;;;;;;;6.00;6.00;;;;;;;;5098544;27;45244;-70
2022/11/06 08:56:02;;;;;;;;;5.75;5.75;;;;;;;;5098445;27;45252;-70
2022/11/06 08:58:28;;;;;;;;;7.75;7.75;;;;;;;;5097962;27;46037;-72
2022/11/06 09:00:53;;;;;;;;;7.75;7.75;;;;;;;;5098249;27;45175;-72
2022/11/06 09:03:18;;;;;;;;;7.75;7.75;;;;;;;;5095519;27;45220;-71
2022/11/06 09:05:43;;;;;;;;;8.00;8.00;;;;;;;;5103469;27;45489;-72
2022/11/06 09:08:09;;;;;;;;;8.25;8.25;;;;;;;;5107129;27;46384;-71
2022/11/06 09:10:35;;;;;;;;;6.50;6.50;;;;;;;;5112175;27;45239;-72
2022/11/06 09:13:00;;;;;;;;;9.00;9.00;;;;;;;;5101373;27;45817;-72
2022/11/06 09:15:26;;;;;;;;;4.50;4.50;;;;;;;;5113721;27;45333;-72
2022/11/06 09:17:51;;;;;;;;;5.25;5.25;;;;;;;;5087748;27;46043;-73
2022/11/06 09:20:18;;;;;;;;;11.00;10.50;;;;;;;;5104861;27;45288;-72
2022/11/06 09:22:44;;;;;;;;;7.50;7.50;;;;;;;;5113176;27;45401;-72
2022/11/06 09:25:10;;;;;;;;;6.25;6.25;;;;;;;;5082850;27;45635;-70
2022/11/06 09:27:42;;;;;;;;;5.50;5.25;;;;;;;;5111895;27;45463;-73
2022/11/06 09:30:08;;;;;;;;;6.75;5.75;;;;;;;;5108435;27;45459;-71
2022/11/06 09:32:34;;;;;;;;;11.25;9.75;;;;;;;;5103476;27;45401;-73
2022/11/06 09:34:59;;;;;;;;;13.75;13.75;;;;;;;;5114617;27;45577;-72
2022/11/06 09:37:25;;;;;;;;;11.25;11.25;;;;;;;;5102483;27;45456;-72
2022/11/06 09:39:50;;;;;;;;;10.25;10.25;;;;;;;;5109724;27;45499;-70
2022/11/06 09:42:21;;;;;;;;;10.75;10.75;;;;;;;;5108999;27;45451;-71
2022/11/06 09:44:47;;;;;;;;;10.00;10.00;;;;;;;;5099215;27;45546;-72
2022/11/06 09:47:17;;;;;;;;;9.50;9.50;;;;;;;;5117030;27;45585;-73
2022/11/06 09:49:51;;;;;;;;;12.75;12.75;;;;;;;;5118036;27;45222;-73
2022/11/06 09:52:16;;;;;;;;;11.00;10.25;;;;;;;;5117261;27;45357;-72
2022/11/06 09:55:01;;;;;;;;;11.20;11.20;;;;;;;;5106456;27;45380;-71
2022/11/06 09:57:36;;;;;;;;;9.75;9.75;;;;;;;;5081770;27;46382;-72
2022/11/06 10:00:03;;;;;;;;;14.00;14.00;;;;;;;;5076672;27;45198;-72
2022/11/06 10:02:32;;;;;;;;;16.25;16.25;;;;;;;;5080955;27;45423;-73
2022/11/06 10:04:58;;;;;;;;;8.75;8.75;;;;;;;;5091525;27;45513;-71
2022/11/06 10:07:28;;;;;;;;;11.25;11.25;;;;;;;;5084150;27;46243;-71
2022/11/06 10:09:53;;;;;;;;;14.00;14.00;;;;;;;;5091206;27;45292;-71
2022/11/06 10:12:18;;;;;;;;;12.50;12.50;;;;;;;;5096006;27;45475;-71
2022/11/06 10:14:44;;;;;;;;;16.50;15.50;;;;;;;;5081413;27;45478;-69
2022/11/06 10:17:19;;;;;;;;;14.25;14.25;;;;;;;;5084203;27;45610;-69
2022/11/06 10:19:47;;;;;;;;;9.25;9.25;;;;;;;;5088131;27;45413;-70
2022/11/06 10:22:21;;;;;;;;;9.50;9.50;;;;;;;;5085972;27;46481;-69
2022/11/06 10:25:06;;;;;;;;;14.25;14.25;;;;;;;;5084838;27;45563;-69
2022/11/06 10:27:32;;;;;;;;;14.00;14.00;;;;;;;;5083053;27;45391;-69
2022/11/06 10:30:11;;;;;;;;;11.25;11.25;;;;;;;;5075875;27;45413;-71
2022/11/06 10:33:12;;;;;;;;;11.75;11.75;;;;;;;;5079553;27;45448;-70
2022/11/06 10:35:56;;;;;;;;;19.00;19.00;;;;;;;;4986463;28;45563;-73
2022/11/06 10:38:26;;;;;;;;;17.00;17.00;;;;;;;;5081399;27;46461;-68
2022/11/06 10:40:53;;;;;;;;;13.50;13.50;;;;;;;;5095472;27;45418;-74
2022/11/06 10:43:19;;;;;;;;;13.00;13.00;;;;;;;;5095730;27;45411;-73
2022/11/06 10:45:46;;;;;;;;;18.25;16.25;;;;;;;;5093451;27;45343;-69
2022/11/06 10:48:17;;;;;;;;;16.75;16.75;;;;;;;;5081375;27;46628;-77
2022/11/06 10:50:52;;;;;;;;;15.50;15.50;;;;;;;;5082683;27;45459;-76
2022/11/06 10:53:32;;;;;;;;;21.50;21.50;;;;;;;;5090449;27;45223;-74
2022/11/06 10:56:15;;;;;;;;;10.50;10.50;;;;;;;;5084100;27;45547;-71
2022/11/06 10:58:40;;;;;;;;;18.00;18.00;;;;;;;;5077890;27;46394;-72
2022/11/06 11:01:08;;;;;;;;;13.50;13.00;;;;;;;;5074045;27;45315;-72
2022/11/06 11:03:41;;;;;;;;;13.25;13.25;;;;;;;;5064809;27;45719;-71
2022/11/06 11:06:07;;;;;;;;;12.75;12.75;;;;;;;;5095140;27;45514;-73
2022/11/06 11:08:34;;;;;;;;;17.25;17.25;;;;;;;;5093528;27;45621;-73
2022/11/06 11:11:01;;;;;;;;;17.00;17.00;;;;;;;;5093502;27;45651;-71
2022/11/06 11:13:26;;;;;;;;;12.25;12.25;;;;;;;;5084735;27;45525;-72
2022/11/06 11:15:51;;;;;;;;;23.50;23.50;;;;;;;;5089053;27;45421;-73
2022/11/06 11:18:16;;;;;;;;;13.75;13.75;;;;;;;;5085393;27;45403;-72
2022/11/06 11:20:49;;;;;;;;;14.25;14.25;;;;;;;;5075124;27;45433;-69
2022/11/06 11:23:21;;;;;;;;;12.50;12.50;;;;;;;;5082192;27;45467;-72
2022/11/06 11:25:48;;;;;;;;;15.50;15.50;;;;;;;;5074758;27;45670;-72
2022/11/06 11:28:21;;;;;;;;;11.75;11.75;;;;;;;;5073502;27;45637;-72
2022/11/06 11:30:54;;;;;;;;;13.75;13.75;;;;;;;;5068094;27;46731;-72
2022/11/06 11:33:21;;;;;;;;;23.00;22.00;;;;;;;;5066684;27;45457;-71
2022/11/06 11:35:48;;;;;;;;;14.75;14.75;;;;;;;;5076818;27;45683;-74
2022/11/06 11:38:15;;;;;;;;;25.50;25.50;;;;;;;;5084780;27;45381;-74
2022/11/06 11:40:40;;;;;;;;;15.75;15.50;;;;;;;;5094897;27;45487;-71
2022/11/06 11:43:20;;;;;;;;;17.50;17.50;;;;;;;;5094085;27;45412;-72
2022/11/06 11:46:08;;;;;;;;;20.25;19.25;;;;;;;;5092811;27;45424;-74
2022/11/06 11:48:45;;;;;;;;;14.25;14.25;;;;;;;;5073558;27;46426;-71
2022/11/06 11:51:27;;;;;;;;;15.50;15.50;;;;;;;;5071278;27;45390;-71
2022/11/06 11:53:55;;;;;;;;;17.25;17.25;;;;;;;;5070930;27;46892;-72
2022/11/06 11:56:21;;;;;;;;;15.75;15.75;;;;;;;;5073281;27;46049;-74
2022/11/06 11:58:51;;;;;;;;;19.25;18.50;;;;;;;;5067962;27;46701;-75
2022/11/06 12:01:17;;;;;;;;;22.50;21.25;;;;;;;;5053371;27;47128;-72
2022/11/06 12:03:45;;;;;;;;;20.00;20.00;;;;;;;;5088261;27;45515;-73
2022/11/06 12:06:13;;;;;;;;;13.50;13.50;;;;;;;;5059299;27;45686;-75
2022/11/06 12:08:40;;;;;;;;;21.75;20.00;;;;;;;;5075039;27;45585;-73
2022/11/06 12:11:05;;;;;;;;;28.00;28.00;;;;;;;;5082703;27;45413;-74
2022/11/06 12:13:31;;;;;;;;;15.50;15.50;;;;;;;;5079613;27;45628;-74
2022/11/06 12:15:56;;;;;;;;;19.25;19.25;;;;;;;;5074747;27;45499;-72
2022/11/06 12:18:27;;;;;;;;;20.25;20.25;;;;;;;;5078456;27;45468;-72
2022/11/06 12:20:55;;;;;;;;;45.50;40.00;;;;;;;;5065574;27;45789;-73
2022/11/06 12:23:43;;;;;;;;;16.00;16.00;;;;;;;;5076187;27;45288;-73
2022/11/06 12:26:12;;;;;;;;;11.00;10.50;;;;;;;;5073501;27;45468;-73
2022/11/06 12:28:38;;;;;;;;;19.00;19.00;;;;;;;;5078631;27;46893;-73
2022/11/06 12:31:22;;;;;;;;;16.25;16.25;;;;;;;;5072742;27;45563;-74
2022/11/06 12:33:48;;;;;;;;;18.75;18.75;;;;;;;;5092003;27;45363;-71
2022/11/06 12:36:17;;;;;;;;;16.25;15.00;;;;;;;;5094780;27;45308;-70
2022/11/06 12:38:47;;;;;;;;;13.50;13.50;;;;;;;;5079567;27;46180;-70
2022/11/06 12:41:16;;;;;;;;;20.00;18.25;;;;;;;;5055965;28;45468;-70
2022/11/06 12:43:45;;;;;;;;;18.25;18.25;;;;;;;;5074674;27;45513;-69
2022/11/06 12:46:14;;;;;;;;;19.25;19.25;;;;;;;;5062926;27;45623;-71
2022/11/06 12:48:43;;;;;;;;;16.00;16.00;;;;;;;;5075560;27;47240;-70
2022/11/06 12:51:14;;;;;;;;;17.25;15.50;;;;;;;;5094700;27;45373;-71
2022/11/06 12:53:47;;;;;;;;;17.25;17.00;;;;;;;;5094475;27;45232;-70
2022/11/06 12:56:27;;;;;;;;;19.25;18.75;;;;;;;;5097124;27;45509;-71
2022/11/06 12:59:08;;;;;;;;;22.25;22.25;;;;;;;;5096969;27;45440;-71
2022/11/06 13:01:46;;;;;;;;;22.25;22.25;;;;;;;;5080985;27;45286;-74
2022/11/06 13:04:30;;;;;;;;;18.50;18.25;;;;;;;;5079720;27;45481;-75
2022/11/06 13:07:13;;;;;;;;;21.25;19.50;;;;;;;;5092982;27;45616;-71
2022/11/06 13:10:08;;;;;;;;;18.00;18.00;;;;;;;;5060022;27;46316;-73
2022/11/06 13:12:52;;;;;;;;;18.75;18.75;;;;;;;;5025481;27;45296;-72
2022/11/06 13:15:35;;;;;;;;;19.50;19.50;;;;;;;;5098479;27;46104;-77
2022/11/06 13:18:08;;;;;;;;;17.50;17.50;;;;;;;;5096176;27;45379;-79
2022/11/06 13:20:54;;;;;;;;;18.50;18.50;;;;;;;;5084140;27;46511;-70
2022/11/06 13:24:17;;;;;;;;;17.25;17.25;;;;;10.69;84.32;99953.00;5089196;27;45991;-75
2022/11/06 13:26:58;;;;;;;;;17.50;17.50;;;;;10.69;84.06;99953.00;5071426;27;45261;-71
2022/11/06 13:29:25;;;;;;;;;18.00;18.00;;;;;10.72;83.96;99937.91;5071506;27;45549;-65
2022/11/06 13:32:02;;;;;;;;;18.00;17.75;;;;;10.82;84.36;99952.28;5070723;27;45480;-68
2022/11/06 13:34:36;;;;;;;;;16.25;16.25;;;;;10.84;84.00;99948.72;5051636;27;45355;-72
2022/11/06 13:37:06;;;;;;;;;19.50;19.25;;;;;10.83;83.99;99955.78;5051213;28;45457;-71
2022/11/06 13:39:40;;;;;;;;;17.75;17.75;;;;;10.78;83.70;99944.63;5051718;28;45319;-69
2022/11/06 13:42:19;;;;;;;;;19.50;19.50;;;;;10.80;84.13;99945.41;5055821;27;45604;-72
2022/11/06 13:44:45;;;;;;;;;21.25;21.25;;;;;10.80;83.81;99943.63;5070702;27;45430;-70
2022/11/06 13:47:22;;;;;;;;;20.25;20.25;;;;;10.87;84.42;99941.53;5071117;27;45253;-72
2022/11/06 13:49:50;;;;;;;;;43.25;37.75;;;;;10.92;84.46;99936.88;5070786;27;45257;-69
2022/11/06 13:54:49;;;;;;;;;18.25;16.50;;;;;10.82;83.56;99933.03;5103506;27;45345;-79
2022/11/06 13:57:45;;;;;;;;;16.50;16.50;;;;;10.89;83.50;99949.34;5072746;27;45382;-72
2022/11/06 14:00:23;;;;;;;;;19.50;19.50;;;;;10.85;83.46;99945.16;5075337;27;45563;-71
2022/11/06 14:03:07;;;;;;;;;17.00;17.00;;;;;10.85;84.23;99937.28;5089889;27;45490;-78
2022/11/06 14:06:05;;;;;;;;;20.50;20.50;;;;;10.88;83.39;99931.84;5070977;27;46516;-74
2022/11/06 14:08:48;;;;;;;;;20.75;20.75;;;;;10.84;83.36;99914.53;5072095;27;45345;-78
2022/11/06 14:11:24;;;;;;;;;11.75;10.50;;;;;10.84;83.34;99927.66;5070052;28;45287;-77
2022/11/06 14:14:02;;;;;;;;;15.25;15.25;;;;;10.86;83.76;99933.69;5087196;27;45429;-78
2022/11/06 14:16:33;;;;;;;;;20.50;20.50;;;;;10.84;82.78;99939.06;5071083;27;45461;-76
2022/11/06 14:19:03;;;;;;;;;23.25;23.25;;;;;10.84;83.22;99935.56;5076070;27;45354;-73
2022/11/06 14:21:35;;;;;;;;;16.25;16.25;;;;;10.84;83.24;99935.56;5082095;27;45470;-74
2022/11/06 14:24:39;;;;;;;;;20.50;20.50;;;;;10.81;83.21;99939.22;5107175;27;45565;-75
2022/11/06 14:27:28;;;;;;;;;16.25;15.50;;;;;10.79;83.18;99943.72;5089554;27;46682;-70
2022/11/06 14:30:04;;;;;;;;;21.75;20.00;;;;;10.78;83.64;99942.84;5089694;27;45569;-81
2022/11/06 14:32:36;;;;;;;;;43.25;37.25;;;;;10.71;83.92;99930.09;5082082;27;45517;-80
2022/11/06 14:35:32;;;;;;;;;239.75;220.75;;;;;10.82;84.77;99940.94;5071049;27;45383;-80
2022/11/06 14:38:17;;;;;;;;;77.50;68.50;;;;;10.90;83.72;99951.03;5107751;27;47065;-83
2022/11/06 14:40:43;;;;;;;;;35.25;33.50;;;;;10.91;83.52;99934.31;5089124;27;45367;-83